• Join FlightAware (Why Join?)
  • Login
  • US Flag 
06:28AM EDT


 

Airport Tracker/Info


-or-


 

Live Flight TrackerFlight Track Log ✈ JAL1873 ✈ 04-May-2013 ✈ RJTT / HND - RJFK / KOJ

Flight Track Log - Related Links

Times and Time Zones

All times are in EDT time to prevent confusion due to time zone crossing. See the JAL1873 flight status page for this flight to view local times or setup timezone preferences in your user account.

Time Position Orientation Groundspeed Altitude Reporting Facility
EDT Latitude Longitude Course Direction KTS MPH feet Rate Location/Type
03:50AM 35.4358 139.4577 246° West  Level Estimated
03:51AM 35.3967 139.3506 246° West  Level Estimated
03:52AM 35.3576 139.2436 246° West  Level Estimated
03:53AM 35.3184 139.1367 246° West  Level Estimated
03:54AM 35.2795 139.0311 246° West  Level Estimated
03:55AM 35.2406 138.9256 246° West  Level Estimated
03:56AM 35.2015 138.8202 246° West  Level Estimated
03:57AM 35.1624 138.7149 246° West  Level Estimated
03:58AM 35.1232 138.6097 246° West  Level Estimated
03:59AM 35.0839 138.5046 245° Southwest  Level Estimated
04:00AM 35.0444 138.3996 245° Southwest  Level Estimated
04:01AM 35.0049 138.2948 245° Southwest  Level Estimated
04:02AM 34.9654 138.1900 245° Southwest  Level Estimated
04:03AM 34.9257 138.0853 245° Southwest  Level Estimated
04:04AM 34.8859 137.9807 245° Southwest  Level Estimated
04:05AM 34.8460 137.8762 245° Southwest  Level Estimated
04:06AM 34.8061 137.7718 245° Southwest  Level Estimated
04:07AM 34.7660 137.6675 245° Southwest  Level Estimated
04:08AM 34.7259 137.5634 245° Southwest  Level Estimated
04:09AM 34.6857 137.4593 245° Southwest  Level Estimated
04:10AM 34.6454 137.3553 245° Southwest  Level Estimated
04:11AM 34.6031 137.2465 245° Southwest  Level Estimated
04:12AM 34.5607 137.1379 245° Southwest  Level Estimated
04:13AM 34.5182 137.0293 245° Southwest  Level Estimated
04:14AM 34.4756 136.9209 245° Southwest  Level Estimated
04:15AM 34.4330 136.8126 244° Southwest  Level Estimated
04:16AM 34.3902 136.7044 244° Southwest  Level Estimated
04:17AM 34.3473 136.5963 244° Southwest  Level Estimated
04:18AM 34.3044 136.4883 244° Southwest  Level Estimated
04:19AM 34.2613 136.3804 244° Southwest  Level Estimated
04:20AM 34.2182 136.2726 244° Southwest  Level Estimated
04:21AM 34.1749 136.1650 244° Southwest  Level Estimated
04:22AM 34.1316 136.0574 244° Southwest  Level Estimated
04:23AM 34.0881 135.9500 244° Southwest  Level Estimated
04:24AM 34.0446 135.8427 244° Southwest  Level Estimated
04:25AM 34.0010 135.7354 244° Southwest  Level Estimated
04:26AM 33.9572 135.6283 244° Southwest  Level Estimated
04:27AM 33.9134 135.5213 244° Southwest  Level Estimated
04:28AM 33.8695 135.4144 244° Southwest  Level Estimated
04:29AM 33.8256 135.3077 244° Southwest  Level Estimated
04:30AM 33.7815 135.2010 244° Southwest  Level Estimated
04:31AM 33.7373 135.0944 244° Southwest  Level Estimated
04:32AM 33.6930 134.9880 243° Southwest  Level Estimated
04:33AM 33.6487 134.8816 243° Southwest  Level Estimated
04:34AM 33.6042 134.7754 243° Southwest  Level Estimated
04:35AM 33.5597 134.6693 243° Southwest  Level Estimated
04:36AM 33.5150 134.5633 243° Southwest  Level Estimated
04:37AM 33.4703 134.4574 243° Southwest  Level Estimated
04:38AM 33.4255 134.3516 243° Southwest  Level Estimated
04:39AM 33.3806 134.2459 243° Southwest  Level Estimated
04:40AM 33.3356 134.1403 243° Southwest  Level Estimated
04:41AM 33.2905 134.0349 243° Southwest  Level Estimated
04:42AM 33.2454 133.9295 243° Southwest  Level Estimated
04:43AM 33.2001 133.8243 243° Southwest  Level Estimated
04:44AM 33.1548 133.7191 243° Southwest  Level Estimated
04:45AM 33.1093 133.6141 243° Southwest  Level Estimated
04:46AM 33.0638 133.5092 243° Southwest  Level Estimated
04:47AM 33.0182 133.4044 243° Southwest  Level Estimated
04:48AM 32.9725 133.2997 243° Southwest  Level Estimated
04:49AM 32.9267 133.1951 242° Southwest  Level Estimated
04:50AM 32.8809 133.0906 242° Southwest  Level Estimated
04:51AM 32.8349 132.9862 242° Southwest  Level Estimated
04:52AM 32.7888 132.8820 242° Southwest  Level Estimated
04:53AM 32.7427 132.7778 242° Southwest  Level Estimated
04:54AM 32.6965 132.6738 242° Southwest  Level Estimated
04:55AM 32.6502 132.5698 242° Southwest  Level Estimated
04:56AM 32.6038 132.4660 242° Southwest  Level Estimated
04:57AM 32.5573 132.3622 242° Southwest  Level Estimated
04:58AM 32.5108 132.2586 242° Southwest  Level Estimated
04:59AM 32.4641 132.1551 242° Southwest  Level Estimated
05:00AM 32.4174 132.0517 242° Southwest  Level Estimated
05:01AM 32.3706 131.9484 242° Southwest  Level Estimated
05:02AM 32.3237 131.8452 242° Southwest  Level Estimated
05:03AM 32.2767 131.7421 242° Southwest  Level Estimated
05:04AM 32.2296 131.6391 242° Southwest  Level Estimated
05:05AM 32.1825 131.5363 242° Southwest  Level Estimated
05:06AM 32.1353 131.4335 242° Southwest  Level Estimated
05:07AM 32.0880 131.3309 241° Southwest  Level Estimated
05:08AM 32.0406 131.2283 241° Southwest  Level Estimated
05:09AM 31.9931 131.1259 241° Southwest  Level Estimated
05:10AM 31.9455 131.0235 241° Southwest  Level Estimated
05:11AM 31.8979 130.9213 241° Southwest  Level Estimated
05:12AM 31.8501 130.8192 241° Southwest  Level Estimated
05:13AM 31.8034 130.7194 241° Southwest  Level Estimated
05:14AM 31.8034 130.7194 210° Southwest  Level Estimated
05:15AM 31.8034 130.7194 210° Southwest  Level Estimated
05:16AM 31.8034 130.7194 210° Southwest  Level Estimated
05:17AM 31.8034 130.7194 210° Southwest  Level Estimated
05:18AM 31.8034 130.7194 210° Southwest  Level Estimated
05:19AM 31.8034 130.7194 210° Southwest  Level Estimated
05:20AM 31.8034 130.7194 210° Southwest  Level Estimated
05:21AM 31.8034 130.7194 210° Southwest  Level Estimated
05:22AM 31.8034 130.7194 210° Southwest  Level Estimated
05:23AM 31.8034 130.7194 210° Southwest  Level Estimated
05:24AM 31.8034 130.7194 210° Southwest  Level Estimated
05:25AM 31.8034 130.7194 210° Southwest  Level Estimated
05:26AM 31.8034 130.7194 210° Southwest  Level Estimated
05:27AM 31.8034 130.7194 210° Southwest  Level Estimated